createdAt,value
2023-02-24T12:16:17.111Z,20.5
2023-02-24T12:17:32.460Z,20.4
2023-02-24T12:18:48.757Z,20.3
2023-02-24T12:21:21.370Z,20.3
2023-02-24T12:22:37.675Z,20.2
2023-02-24T12:23:53.967Z,20.2
2023-02-24T12:25:10.266Z,20.2
2023-02-24T12:26:26.575Z,20.2
2023-02-24T12:27:42.871Z,20.1
2023-02-24T12:28:59.191Z,20.1
2023-02-24T12:31:31.774Z,20.1
2023-02-24T12:32:47.158Z,20.1
2023-02-24T12:34:03.459Z,20.1
2023-02-24T12:35:18.811Z,20.1
2023-02-24T12:37:51.405Z,20.2
2023-02-24T12:39:07.706Z,20.3
2023-02-24T12:40:24.016Z,20.4
2023-02-24T12:41:40.320Z,20.5
2023-02-24T12:42:56.616Z,20.6
2023-02-24T12:44:12.916Z,20.7
2023-02-24T12:45:29.213Z,20.8
2023-02-24T12:46:45.528Z,21
2023-02-24T12:48:01.830Z,21.1
2023-02-24T12:49:18.118Z,21.3
2023-02-24T12:50:34.438Z,21.4
2023-02-24T12:51:49.779Z,21.5
2023-02-24T12:54:22.388Z,21.8
2023-02-24T12:55:37.757Z,22
2023-02-24T12:56:53.096Z,22.1
2023-02-24T12:58:09.413Z,22.2
2023-02-24T13:00:42.009Z,22.5
2023-02-24T13:01:58.319Z,22.6
2023-02-24T13:03:14.612Z,22.6
2023-02-24T13:04:30.911Z,22.7
2023-02-24T13:05:47.206Z,22.7
2023-02-24T13:07:03.527Z,22.6
2023-02-24T13:08:19.819Z,22.6
2023-02-24T13:09:36.125Z,22.6
2023-02-24T13:10:52.430Z,22.5
2023-02-24T13:12:08.719Z,22.4
2023-02-24T13:13:25.153Z,22.4
2023-02-24T13:14:41.461Z,22.3
2023-02-24T13:15:57.756Z,22.3
2023-02-24T13:17:14.052Z,22.2
2023-02-24T13:18:30.355Z,22.2
2023-02-24T13:19:46.663Z,22.1
2023-02-24T13:21:02.967Z,22.1
2023-02-24T13:22:19.279Z,22
2023-02-24T13:23:34.579Z,22
2023-02-24T13:24:49.825Z,22
2023-02-24T13:26:06.070Z,21.9
2023-02-24T13:27:22.321Z,21.9
2023-02-24T13:28:38.546Z,21.8
2023-02-24T13:29:54.787Z,21.8
2023-02-24T13:31:11.034Z,21.8
2023-02-24T13:32:27.270Z,21.7
2023-02-24T13:33:43.525Z,21.7
2023-02-24T13:34:59.759Z,21.6
2023-02-24T13:36:16.002Z,21.6
2023-02-24T13:37:31.270Z,21.5
2023-02-24T13:38:46.524Z,21.5
2023-02-24T13:40:02.767Z,21.5
2023-02-24T13:41:18.987Z,21.4
2023-02-24T13:42:35.239Z,21.4
2023-02-24T13:43:51.484Z,21.3
2023-02-24T13:45:07.717Z,21.3
2023-02-24T13:46:23.958Z,21.3
2023-02-24T13:47:40.198Z,21.2
2023-02-24T13:48:56.437Z,21.2
2023-02-24T13:50:12.683Z,21.2
2023-02-24T13:51:28.919Z,21.1
2023-02-24T13:52:45.164Z,21.1
2023-02-24T13:54:01.396Z,21.1
2023-02-24T13:55:16.657Z,21
2023-02-24T13:56:32.894Z,21
2023-02-24T13:59:05.386Z,20.9
2023-02-24T14:00:21.628Z,20.9
2023-02-24T14:01:37.857Z,20.9
2023-02-24T14:02:54.103Z,20.9
2023-02-24T14:04:10.343Z,20.8
2023-02-24T14:05:26.585Z,20.8
2023-02-24T14:06:42.836Z,20.8
2023-02-24T14:07:59.066Z,20.8
2023-02-24T14:09:15.316Z,20.7
2023-02-24T14:10:31.542Z,20.7
2023-02-24T14:11:46.797Z,20.7
2023-02-24T14:13:03.041Z,20.6
2023-02-24T14:14:19.276Z,20.6
2023-02-24T14:15:35.522Z,20.6
2023-02-24T14:16:51.769Z,20.6
2023-02-24T14:18:08.010Z,20.6
2023-02-24T14:19:24.239Z,20.6
2023-02-24T14:20:40.493Z,20.6
2023-02-24T14:21:56.719Z,20.6
2023-02-24T14:23:12.963Z,20.7
2023-02-24T14:24:29.201Z,20.8
2023-02-24T14:25:45.454Z,20.9
2023-02-24T14:27:01.682Z,21
2023-02-24T14:28:16.948Z,21.1
2023-02-24T14:29:33.181Z,21.2
2023-02-24T14:30:49.483Z,21.4
2023-02-24T14:32:05.779Z,21.5
2023-02-24T14:33:22.072Z,21.6
2023-02-24T14:34:38.373Z,21.8
2023-02-24T14:35:54.677Z,21.9
2023-02-24T14:37:10.961Z,22
2023-02-24T14:38:27.256Z,22.1
2023-02-24T14:39:43.547Z,22.2
2023-02-24T14:40:59.840Z,22.3
2023-02-24T14:42:16.132Z,22.4
2023-02-24T14:43:32.423Z,22.5
2023-02-24T14:46:05.026Z,22.6
2023-02-24T14:47:21.312Z,22.6
2023-02-24T14:48:37.617Z,22.6
2023-02-24T14:49:53.905Z,22.6
2023-02-24T14:51:10.202Z,22.6
2023-02-24T14:54:58.994Z,22.6
2023-02-24T14:56:15.236Z,22.6
2023-02-24T14:57:31.475Z,22.6
2023-02-24T14:58:47.716Z,22.6
